Terminal Aerodrome Forecast
Issued by NWS Grand Forks, ND

Home | Current Version | Previous Version | Graphics & Text | Print | Product List | Glossary On
Versions: 1 2 3 4 5 6 7 8 9 10 11 12 13 14 15 16 17 18 19
000
FTUS43 KFGF 211132
TAFGFK
TAF
KGFK 211132Z 2112/2212 25005KT P6SM SCT200
     FM211400 32006KT P6SM SCT200
     FM220200 23004KT P6SM FEW250
     FM221100 29004KT P6SM FEW250=

USA.gov is the U.S. government's official web portal to all federal, state and local government web resources and services.